sensor_id;sensor_type;location;lat;lon;timestamp;P1;durP1;ratioP1;P2;durP2;ratioP2
12072;SDS011;6098;49.004;8.372;2023-04-25T00:09:52;7.67;;;4.76;;
12072;SDS011;6098;49.004;8.372;2023-04-25T00:24:43;6.93;;;4.62;;
12072;SDS011;6098;49.004;8.372;2023-04-25T00:39:34;5.20;;;3.97;;
12072;SDS011;6098;49.004;8.372;2023-04-25T00:54:25;4.76;;;3.68;;
12072;SDS011;6098;49.004;8.372;2023-04-25T01:09:18;4.79;;;3.53;;
12072;SDS011;6098;49.004;8.372;2023-04-25T01:24:10;4.11;;;3.52;;
12072;SDS011;6098;49.004;8.372;2023-04-25T01:39:00;5.38;;;3.89;;
12072;SDS011;6098;49.004;8.372;2023-04-25T01:53:52;3.84;;;3.50;;
12072;SDS011;6098;49.004;8.372;2023-04-25T02:08:44;4.58;;;3.60;;
12072;SDS011;6098;49.004;8.372;2023-04-25T02:23:35;4.99;;;4.01;;
12072;SDS011;6098;49.004;8.372;2023-04-25T02:38:30;4.40;;;3.96;;
12072;SDS011;6098;49.004;8.372;2023-04-25T02:53:23;5.38;;;4.23;;
12072;SDS011;6098;49.004;8.372;2023-04-25T03:08:16;4.27;;;3.79;;
12072;SDS011;6098;49.004;8.372;2023-04-25T03:23:09;4.39;;;3.92;;
12072;SDS011;6098;49.004;8.372;2023-04-25T03:37:59;4.28;;;3.82;;
12072;SDS011;6098;49.004;8.372;2023-04-25T03:52:51;4.91;;;3.98;;
12072;SDS011;6098;49.004;8.372;2023-04-25T04:07:41;5.13;;;4.13;;
12072;SDS011;6098;49.004;8.372;2023-04-25T04:22:33;6.37;;;4.29;;
12072;SDS011;6098;49.004;8.372;2023-04-25T04:37:26;4.70;;;4.08;;
12072;SDS011;6098;49.004;8.372;2023-04-25T04:52:17;4.73;;;4.23;;
12072;SDS011;6098;49.004;8.372;2023-04-25T05:07:09;5.27;;;4.49;;
12072;SDS011;6098;49.004;8.372;2023-04-25T05:22:01;4.69;;;4.04;;
12072;SDS011;6098;49.004;8.372;2023-04-25T05:36:53;5.27;;;3.51;;
12072;SDS011;6098;49.004;8.372;2023-04-25T05:51:45;4.36;;;3.91;;
12072;SDS011;6098;49.004;8.372;2023-04-25T06:06:36;5.89;;;4.30;;
12072;SDS011;6098;49.004;8.372;2023-04-25T06:21:28;5.22;;;4.32;;
12072;SDS011;6098;49.004;8.372;2023-04-25T06:36:19;4.96;;;3.96;;
12072;SDS011;6098;49.004;8.372;2023-04-25T06:51:09;6.18;;;4.76;;
12072;SDS011;6098;49.004;8.372;2023-04-25T07:06:01;5.64;;;4.79;;
12072;SDS011;6098;49.004;8.372;2023-04-25T07:20:52;6.61;;;5.37;;
12072;SDS011;6098;49.004;8.372;2023-04-25T07:35:42;6.47;;;5.62;;
12072;SDS011;6098;49.004;8.372;2023-04-25T07:50:33;8.29;;;6.00;;
12072;SDS011;6098;49.004;8.372;2023-04-25T08:05:24;9.66;;;6.96;;
12072;SDS011;6098;49.004;8.372;2023-04-25T08:20:15;9.64;;;7.66;;
12072;SDS011;6098;49.004;8.372;2023-04-25T08:35:09;10.66;;;7.59;;
12072;SDS011;6098;49.004;8.372;2023-04-25T08:50:02;9.81;;;7.68;;
12072;SDS011;6098;49.004;8.372;2023-04-25T09:04:51;10.91;;;8.72;;
12072;SDS011;6098;49.004;8.372;2023-04-25T09:19:43;12.17;;;9.31;;
12072;SDS011;6098;49.004;8.372;2023-04-25T09:34:38;14.92;;;10.33;;
12072;SDS011;6098;49.004;8.372;2023-04-25T09:49:24;15.16;;;10.44;;
12072;SDS011;6098;49.004;8.372;2023-04-25T10:04:16;17.39;;;11.51;;
12072;SDS011;6098;49.004;8.372;2023-04-25T10:19:07;25.68;;;13.61;;
12072;SDS011;6098;49.004;8.372;2023-04-25T10:33:59;15.88;;;10.64;;
12072;SDS011;6098;49.004;8.372;2023-04-25T10:48:51;17.23;;;10.91;;
12072;SDS011;6098;49.004;8.372;2023-04-25T11:03:48;18.10;;;11.49;;
12072;SDS011;6098;49.004;8.372;2023-04-25T11:18:42;17.59;;;12.72;;
12072;SDS011;6098;49.004;8.372;2023-04-25T11:33:36;20.91;;;12.66;;
12072;SDS011;6098;49.004;8.372;2023-04-25T11:48:36;6.31;;;4.18;;
12072;SDS011;6098;49.004;8.372;2023-04-25T12:03:21;11.17;;;7.87;;
12072;SDS011;6098;49.004;8.372;2023-04-25T12:18:13;12.64;;;7.64;;
12072;SDS011;6098;49.004;8.372;2023-04-25T12:33:06;5.34;;;3.58;;
12072;SDS011;6098;49.004;8.372;2023-04-25T12:48:00;4.76;;;4.26;;
12072;SDS011;6098;49.004;8.372;2023-04-25T13:02:52;3.90;;;3.53;;
12072;SDS011;6098;49.004;8.372;2023-04-25T13:17:45;4.53;;;3.70;;
12072;SDS011;6098;49.004;8.372;2023-04-25T13:32:37;2.46;;;2.26;;
12072;SDS011;6098;49.004;8.372;2023-04-25T13:47:29;3.19;;;2.61;;
12072;SDS011;6098;49.004;8.372;2023-04-25T14:02:22;3.51;;;2.49;;
12072;SDS011;6098;49.004;8.372;2023-04-25T14:17:15;2.82;;;2.53;;
12072;SDS011;6098;49.004;8.372;2023-04-25T14:32:08;3.67;;;2.89;;
12072;SDS011;6098;49.004;8.372;2023-04-25T14:47:00;4.41;;;3.30;;
12072;SDS011;6098;49.004;8.372;2023-04-25T15:01:53;3.54;;;3.24;;
12072;SDS011;6098;49.004;8.372;2023-04-25T15:16:44;4.21;;;3.42;;
12072;SDS011;6098;49.004;8.372;2023-04-25T15:31:35;4.82;;;3.90;;
12072;SDS011;6098;49.004;8.372;2023-04-25T15:46:24;7.21;;;4.61;;
12072;SDS011;6098;49.004;8.372;2023-04-25T16:01:15;6.19;;;4.33;;
12072;SDS011;6098;49.004;8.372;2023-04-25T16:16:05;4.90;;;3.67;;
12072;SDS011;6098;49.004;8.372;2023-04-25T16:30:55;4.51;;;3.67;;
12072;SDS011;6098;49.004;8.372;2023-04-25T16:45:45;4.38;;;3.41;;
12072;SDS011;6098;49.004;8.372;2023-04-25T17:00:38;5.88;;;4.09;;
12072;SDS011;6098;49.004;8.372;2023-04-25T17:15:31;7.80;;;5.58;;
12072;SDS011;6098;49.004;8.372;2023-04-25T17:30:33;8.52;;;5.28;;
12072;SDS011;6098;49.004;8.372;2023-04-25T17:45:24;8.53;;;5.42;;
12072;SDS011;6098;49.004;8.372;2023-04-25T18:00:18;8.40;;;5.77;;
12072;SDS011;6098;49.004;8.372;2023-04-25T18:15:08;8.38;;;6.42;;
12072;SDS011;6098;49.004;8.372;2023-04-25T18:30:01;10.32;;;6.31;;
12072;SDS011;6098;49.004;8.372;2023-04-25T18:44:51;9.94;;;6.38;;
12072;SDS011;6098;49.004;8.372;2023-04-25T18:59:43;10.26;;;6.82;;
12072;SDS011;6098;49.004;8.372;2023-04-25T19:14:35;10.41;;;7.16;;
12072;SDS011;6098;49.004;8.372;2023-04-25T19:29:28;9.06;;;7.39;;
12072;SDS011;6098;49.004;8.372;2023-04-25T19:44:20;10.97;;;6.82;;
12072;SDS011;6098;49.004;8.372;2023-04-25T19:59:11;12.32;;;8.08;;
12072;SDS011;6098;49.004;8.372;2023-04-25T20:14:03;11.41;;;7.96;;
12072;SDS011;6098;49.004;8.372;2023-04-25T20:28:55;11.40;;;7.59;;
12072;SDS011;6098;49.004;8.372;2023-04-25T20:43:46;9.77;;;7.29;;
12072;SDS011;6098;49.004;8.372;2023-04-25T20:58:40;11.43;;;7.91;;
12072;SDS011;6098;49.004;8.372;2023-04-25T21:13:31;11.47;;;8.71;;
12072;SDS011;6098;49.004;8.372;2023-04-25T21:28:23;11.84;;;9.28;;
12072;SDS011;6098;49.004;8.372;2023-04-25T21:43:16;12.13;;;8.51;;
12072;SDS011;6098;49.004;8.372;2023-04-25T21:58:07;16.83;;;8.89;;
12072;SDS011;6098;49.004;8.372;2023-04-25T22:13:01;13.02;;;9.21;;
12072;SDS011;6098;49.004;8.372;2023-04-25T22:27:54;12.54;;;8.63;;
12072;SDS011;6098;49.004;8.372;2023-04-25T22:42:45;12.76;;;9.30;;
12072;SDS011;6098;49.004;8.372;2023-04-25T22:57:36;17.39;;;10.93;;
12072;SDS011;6098;49.004;8.372;2023-04-25T23:12:33;16.29;;;11.37;;
12072;SDS011;6098;49.004;8.372;2023-04-25T23:27:24;18.59;;;10.86;;
12072;SDS011;6098;49.004;8.372;2023-04-25T23:42:16;21.53;;;13.54;;
12072;SDS011;6098;49.004;8.372;2023-04-25T23:57:06;19.68;;;12.36;;
